sensor_id;sensor_type;location;lat;lon;timestamp;noise_LAeq;noise_LA_min;noise_LA_max;noise_LA01;noise_LA95
58303;Laerm;44109;52.398;7.024;2023-05-02T00:00:36;46.12;31.37;57.11;;
58303;Laerm;44109;52.398;7.024;2023-05-02T00:03:04;46.25;31.18;56.99;;
58303;Laerm;44109;52.398;7.024;2023-05-02T00:05:35;46.08;30.94;57.10;;
58303;Laerm;44109;52.398;7.024;2023-05-02T00:08:07;46.09;31.25;57.53;;
58303;Laerm;44109;52.398;7.024;2023-05-02T00:10:35;46.23;30.94;57.13;;
58303;Laerm;44109;52.398;7.024;2023-05-02T00:13:06;46.11;30.94;57.07;;
58303;Laerm;44109;52.398;7.024;2023-05-02T00:15:33;46.30;30.80;57.09;;
58303;Laerm;44109;52.398;7.024;2023-05-02T00:18:01;46.38;31.23;57.03;;
58303;Laerm;44109;52.398;7.024;2023-05-02T00:20:31;46.30;30.83;57.00;;
58303;Laerm;44109;52.398;7.024;2023-05-02T00:23:01;46.10;30.94;56.85;;
58303;Laerm;44109;52.398;7.024;2023-05-02T00:25:29;46.22;30.70;57.01;;
58303;Laerm;44109;52.398;7.024;2023-05-02T00:27:56;46.22;30.89;57.00;;
58303;Laerm;44109;52.398;7.024;2023-05-02T00:30:24;46.09;30.82;56.75;;
58303;Laerm;44109;52.398;7.024;2023-05-02T00:32:51;46.09;31.13;57.84;;
58303;Laerm;44109;52.398;7.024;2023-05-02T00:35:20;46.18;30.76;59.02;;
58303;Laerm;44109;52.398;7.024;2023-05-02T00:37:48;46.15;30.81;56.95;;
58303;Laerm;44109;52.398;7.024;2023-05-02T00:40:17;46.36;31.05;57.26;;
58303;Laerm;44109;52.398;7.024;2023-05-02T00:42:45;46.40;31.01;56.81;;
58303;Laerm;44109;52.398;7.024;2023-05-02T00:45:12;46.46;30.95;56.86;;
58303;Laerm;44109;52.398;7.024;2023-05-02T00:47:41;46.58;30.79;57.02;;
58303;Laerm;44109;52.398;7.024;2023-05-02T00:50:09;46.61;30.82;60.96;;
58303;Laerm;44109;52.398;7.024;2023-05-02T00:52:37;46.69;30.66;57.05;;
58303;Laerm;44109;52.398;7.024;2023-05-02T00:55:05;46.68;30.58;56.87;;
58303;Laerm;44109;52.398;7.024;2023-05-02T00:57:35;46.73;30.85;57.08;;
58303;Laerm;44109;52.398;7.024;2023-05-02T01:00:03;46.73;30.84;57.18;;
58303;Laerm;44109;52.398;7.024;2023-05-02T01:02:42;46.51;30.94;57.25;;
58303;Laerm;44109;52.398;7.024;2023-05-02T01:05:20;46.36;30.82;57.09;;
58303;Laerm;44109;52.398;7.024;2023-05-02T01:08:02;46.26;30.98;57.16;;
58303;Laerm;44109;52.398;7.024;2023-05-02T01:10:47;46.17;30.70;57.08;;
58303;Laerm;44109;52.398;7.024;2023-05-02T01:13:20;46.44;30.63;57.12;;
58303;Laerm;44109;52.398;7.024;2023-05-02T01:15:50;46.46;30.69;57.13;;
58303;Laerm;44109;52.398;7.024;2023-05-02T01:18:23;46.73;30.80;57.15;;
58303;Laerm;44109;52.398;7.024;2023-05-02T01:20:58;46.68;30.94;57.34;;
58303;Laerm;44109;52.398;7.024;2023-05-02T01:23:38;46.61;30.74;57.17;;
58303;Laerm;44109;52.398;7.024;2023-05-02T01:26:21;46.50;30.76;57.43;;
58303;Laerm;44109;52.398;7.024;2023-05-02T01:29:02;46.13;30.74;57.23;;
58303;Laerm;44109;52.398;7.024;2023-05-02T01:31:35;46.73;30.80;57.24;;
58303;Laerm;44109;52.398;7.024;2023-05-02T01:34:08;46.49;30.98;57.56;;
58303;Laerm;44109;52.398;7.024;2023-05-02T01:36:41;46.82;31.04;57.45;;
58303;Laerm;44109;52.398;7.024;2023-05-02T01:39:13;32.59;30.42;38.46;;
58303;Laerm;44109;52.398;7.024;2023-05-02T01:41:43;46.21;30.77;56.89;;
58303;Laerm;44109;52.398;7.024;2023-05-02T01:44:15;46.72;30.82;57.35;;
58303;Laerm;44109;52.398;7.024;2023-05-02T01:46:43;46.82;30.56;57.18;;
58303;Laerm;44109;52.398;7.024;2023-05-02T01:49:13;47.02;30.84;57.47;;
58303;Laerm;44109;52.398;7.024;2023-05-02T01:51:46;47.08;31.21;57.59;;
58303;Laerm;44109;52.398;7.024;2023-05-02T01:54:16;46.66;30.81;57.19;;
58303;Laerm;44109;52.398;7.024;2023-05-02T01:56:46;47.16;30.70;57.32;;
58303;Laerm;44109;52.398;7.024;2023-05-02T01:59:19;47.07;30.84;57.38;;
58303;Laerm;44109;52.398;7.024;2023-05-02T02:01:51;47.07;30.89;57.86;;
58303;Laerm;44109;52.398;7.024;2023-05-02T02:04:20;47.17;31.17;57.84;;
58303;Laerm;44109;52.398;7.024;2023-05-02T02:06:56;46.85;30.79;57.11;;
58303;Laerm;44109;52.398;7.024;2023-05-02T02:09:24;48.12;31.39;66.89;;
58303;Laerm;44109;52.398;7.024;2023-05-02T02:12:00;47.21;31.66;59.75;;
58303;Laerm;44109;52.398;7.024;2023-05-02T02:14:35;47.11;31.64;58.09;;
58303;Laerm;44109;52.398;7.024;2023-05-02T02:17:11;46.77;31.76;57.52;;
58303;Laerm;44109;52.398;7.024;2023-05-02T02:19:41;47.04;31.95;57.07;;
58303;Laerm;44109;52.398;7.024;2023-05-02T02:22:12;46.77;31.25;57.18;;
58303;Laerm;44109;52.398;7.024;2023-05-02T02:24:43;46.59;31.15;57.16;;
58303;Laerm;44109;52.398;7.024;2023-05-02T02:27:13;46.78;31.20;57.08;;
58303;Laerm;44109;52.398;7.024;2023-05-02T02:29:42;46.98;31.45;57.55;;
58303;Laerm;44109;52.398;7.024;2023-05-02T02:32:10;47.41;31.98;58.98;;
58303;Laerm;44109;52.398;7.024;2023-05-02T02:34:38;46.86;31.36;57.31;;
58303;Laerm;44109;52.398;7.024;2023-05-02T02:37:12;46.53;31.57;57.07;;
58303;Laerm;44109;52.398;7.024;2023-05-02T02:39:57;46.15;31.04;56.92;;
58303;Laerm;44109;52.398;7.024;2023-05-02T02:42:38;46.29;31.47;56.76;;
58303;Laerm;44109;52.398;7.024;2023-05-02T02:45:25;46.09;31.01;57.22;;
58303;Laerm;44109;52.398;7.024;2023-05-02T02:48:02;46.31;30.97;57.73;;
58303;Laerm;44109;52.398;7.024;2023-05-02T02:50:40;46.78;31.59;63.64;;
58303;Laerm;44109;52.398;7.024;2023-05-02T02:53:17;46.52;31.70;56.98;;
58303;Laerm;44109;52.398;7.024;2023-05-02T02:55:54;46.42;31.43;57.21;;
58303;Laerm;44109;52.398;7.024;2023-05-02T02:58:39;46.16;32.01;57.18;;
58303;Laerm;44109;52.398;7.024;2023-05-02T03:01:17;46.25;31.40;57.16;;
58303;Laerm;44109;52.398;7.024;2023-05-02T03:03:48;46.65;31.63;57.44;;
58303;Laerm;44109;52.398;7.024;2023-05-02T03:06:18;46.76;32.34;57.35;;
58303;Laerm;44109;52.398;7.024;2023-05-02T03:08:46;46.78;32.30;57.14;;
58303;Laerm;44109;52.398;7.024;2023-05-02T03:11:14;46.91;32.62;57.31;;
58303;Laerm;44109;52.398;7.024;2023-05-02T03:13:41;47.37;33.33;58.72;;
58303;Laerm;44109;52.398;7.024;2023-05-02T03:16:40;48.16;33.31;59.21;;
58303;Laerm;44109;52.398;7.024;2023-05-02T03:19:07;56.76;34.86;75.36;;
58303;Laerm;44109;52.398;7.024;2023-05-02T03:21:35;61.01;34.95;78.18;;
58303;Laerm;44109;52.398;7.024;2023-05-02T03:24:04;61.94;35.45;78.11;;
58303;Laerm;44109;52.398;7.024;2023-05-02T03:26:32;60.94;35.72;76.61;;
58303;Laerm;44109;52.398;7.024;2023-05-02T03:28:59;58.78;34.52;78.45;;
58303;Laerm;44109;52.398;7.024;2023-05-02T03:31:27;55.32;34.82;70.02;;
58303;Laerm;44109;52.398;7.024;2023-05-02T03:33:56;53.40;35.21;74.78;;
58303;Laerm;44109;52.398;7.024;2023-05-02T03:36:24;54.50;34.94;72.91;;
58303;Laerm;44109;52.398;7.024;2023-05-02T03:38:51;55.20;33.62;70.33;;
58303;Laerm;44109;52.398;7.024;2023-05-02T03:41:19;53.57;33.50;65.82;;
58303;Laerm;44109;52.398;7.024;2023-05-02T03:43:47;54.82;34.83;69.61;;
58303;Laerm;44109;52.398;7.024;2023-05-02T03:46:14;55.33;34.16;69.25;;
58303;Laerm;44109;52.398;7.024;2023-05-02T03:48:42;55.99;33.95;69.42;;
58303;Laerm;44109;52.398;7.024;2023-05-02T03:51:13;54.98;35.07;71.25;;
58303;Laerm;44109;52.398;7.024;2023-05-02T03:53:40;53.55;34.41;67.10;;
58303;Laerm;44109;52.398;7.024;2023-05-02T03:56:08;53.59;33.94;68.32;;
58303;Laerm;44109;52.398;7.024;2023-05-02T03:58:36;54.11;34.04;68.64;;
58303;Laerm;44109;52.398;7.024;2023-05-02T04:01:12;54.43;33.09;71.07;;
58303;Laerm;44109;52.398;7.024;2023-05-02T04:03:40;54.36;33.26;71.05;;
58303;Laerm;44109;52.398;7.024;2023-05-02T04:06:08;51.98;34.67;69.67;;
58303;Laerm;44109;52.398;7.024;2023-05-02T04:08:37;52.43;33.28;70.29;;
58303;Laerm;44109;52.398;7.024;2023-05-02T04:11:04;53.87;34.20;68.45;;
58303;Laerm;44109;52.398;7.024;2023-05-02T04:13:32;52.63;34.17;68.40;;
58303;Laerm;44109;52.398;7.024;2023-05-02T04:16:00;53.64;34.44;70.04;;
58303;Laerm;44109;52.398;7.024;2023-05-02T04:18:27;53.25;34.00;68.90;;
58303;Laerm;44109;52.398;7.024;2023-05-02T04:20:56;50.71;33.27;66.81;;
58303;Laerm;44109;52.398;7.024;2023-05-02T04:23:23;54.27;37.24;70.41;;
58303;Laerm;44109;52.398;7.024;2023-05-02T04:25:53;55.21;37.00;73.69;;
58303;Laerm;44109;52.398;7.024;2023-05-02T04:28:22;52.00;41.01;70.13;;
58303;Laerm;44109;52.398;7.024;2023-05-02T04:31:03;53.63;37.06;70.03;;
58303;Laerm;44109;52.398;7.024;2023-05-02T04:33:31;59.02;36.08;73.21;;
58303;Laerm;44109;52.398;7.024;2023-05-02T04:35:59;57.01;36.66;76.96;;
58303;Laerm;44109;52.398;7.024;2023-05-02T04:38:26;59.40;37.12;74.74;;
58303;Laerm;44109;52.398;7.024;2023-05-02T04:40:55;56.85;36.23;73.71;;
58303;Laerm;44109;52.398;7.024;2023-05-02T04:43:23;52.03;36.05;69.75;;
58303;Laerm;44109;52.398;7.024;2023-05-02T04:45:51;50.55;36.47;66.40;;
58303;Laerm;44109;52.398;7.024;2023-05-02T04:48:18;51.46;37.08;64.68;;
58303;Laerm;44109;52.398;7.024;2023-05-02T04:50:46;49.78;36.63;65.02;;
58303;Laerm;44109;52.398;7.024;2023-05-02T04:53:14;50.93;38.11;66.62;;
58303;Laerm;44109;52.398;7.024;2023-05-02T04:55:42;50.31;37.04;64.65;;
58303;Laerm;44109;52.398;7.024;2023-05-02T04:58:11;52.13;38.58;71.39;;
58303;Laerm;44109;52.398;7.024;2023-05-02T05:00:38;49.21;39.19;65.12;;
58303;Laerm;44109;52.398;7.024;2023-05-02T05:03:06;53.70;37.57;70.74;;
58303;Laerm;44109;52.398;7.024;2023-05-02T05:05:34;53.91;42.67;68.39;;
58303;Laerm;44109;52.398;7.024;2023-05-02T05:08:01;54.30;41.58;70.76;;
58303;Laerm;44109;52.398;7.024;2023-05-02T05:10:29;54.30;40.97;76.09;;
58303;Laerm;44109;52.398;7.024;2023-05-02T05:12:57;49.68;38.04;69.61;;
58303;Laerm;44109;52.398;7.024;2023-05-02T05:15:26;50.16;38.57;66.71;;
58303;Laerm;44109;52.398;7.024;2023-05-02T05:17:53;51.03;38.74;64.84;;
58303;Laerm;44109;52.398;7.024;2023-05-02T05:20:21;50.08;37.62;64.78;;
58303;Laerm;44109;52.398;7.024;2023-05-02T05:22:48;49.21;38.23;71.11;;
58303;Laerm;44109;52.398;7.024;2023-05-02T05:25:16;50.43;38.28;72.52;;
58303;Laerm;44109;52.398;7.024;2023-05-02T05:27:44;52.89;39.31;85.13;;
58303;Laerm;44109;52.398;7.024;2023-05-02T05:30:11;49.97;38.24;63.31;;
58303;Laerm;44109;52.398;7.024;2023-05-02T05:32:40;50.09;37.26;65.59;;
58303;Laerm;44109;52.398;7.024;2023-05-02T05:35:09;46.39;36.89;56.74;;
58303;Laerm;44109;52.398;7.024;2023-05-02T05:37:37;49.18;36.01;64.19;;
58303;Laerm;44109;52.398;7.024;2023-05-02T05:40:07;50.27;36.69;62.83;;
58303;Laerm;44109;52.398;7.024;2023-05-02T05:42:35;50.76;35.63;63.98;;
58303;Laerm;44109;52.398;7.024;2023-05-02T05:45:03;49.43;36.74;66.80;;
58303;Laerm;44109;52.398;7.024;2023-05-02T05:47:31;50.82;38.19;76.05;;
58303;Laerm;44109;52.398;7.024;2023-05-02T05:50:00;51.65;40.54;66.80;;
58303;Laerm;44109;52.398;7.024;2023-05-02T05:52:27;60.83;40.41;82.06;;
58303;Laerm;44109;52.398;7.024;2023-05-02T05:54:55;57.84;40.15;78.36;;
58303;Laerm;44109;52.398;7.024;2023-05-02T05:57:23;53.58;37.92;70.82;;
58303;Laerm;44109;52.398;7.024;2023-05-02T05:59:50;55.03;39.30;69.88;;
58303;Laerm;44109;52.398;7.024;2023-05-02T06:02:18;53.36;37.73;69.59;;
58303;Laerm;44109;52.398;7.024;2023-05-02T06:04:46;49.68;37.50;68.63;;
58303;Laerm;44109;52.398;7.024;2023-05-02T06:07:15;51.60;39.50;76.23;;
58303;Laerm;44109;52.398;7.024;2023-05-02T06:09:43;52.20;39.22;77.47;;
58303;Laerm;44109;52.398;7.024;2023-05-02T06:12:10;47.98;37.35;60.77;;
58303;Laerm;44109;52.398;7.024;2023-05-02T06:14:38;49.00;36.56;63.16;;
58303;Laerm;44109;52.398;7.024;2023-05-02T06:17:06;50.00;36.00;60.95;;
58303;Laerm;44109;52.398;7.024;2023-05-02T06:19:33;52.23;37.86;67.98;;
58303;Laerm;44109;52.398;7.024;2023-05-02T06:22:01;52.41;38.69;68.40;;
58303;Laerm;44109;52.398;7.024;2023-05-02T06:24:30;49.36;37.36;67.16;;
58303;Laerm;44109;52.398;7.024;2023-05-02T06:26:58;49.93;38.36;67.10;;
58303;Laerm;44109;52.398;7.024;2023-05-02T06:29:26;50.05;39.25;62.13;;
58303;Laerm;44109;52.398;7.024;2023-05-02T06:31:54;52.86;38.87;69.52;;
58303;Laerm;44109;52.398;7.024;2023-05-02T06:34:22;51.24;38.70;69.26;;
58303;Laerm;44109;52.398;7.024;2023-05-02T06:36:53;50.54;37.89;70.21;;
58303;Laerm;44109;52.398;7.024;2023-05-02T06:39:22;50.01;36.07;62.75;;
58303;Laerm;44109;52.398;7.024;2023-05-02T06:41:55;52.94;37.17;69.63;;
58303;Laerm;44109;52.398;7.024;2023-05-02T06:44:24;51.80;37.68;69.89;;
58303;Laerm;44109;52.398;7.024;2023-05-02T06:46:51;53.10;37.50;71.23;;
58303;Laerm;44109;52.398;7.024;2023-05-02T06:49:20;53.04;37.10;66.93;;
58303;Laerm;44109;52.398;7.024;2023-05-02T06:51:48;49.91;36.76;68.26;;
58303;Laerm;44109;52.398;7.024;2023-05-02T06:54:16;48.77;38.25;66.35;;
58303;Laerm;44109;52.398;7.024;2023-05-02T06:56:44;48.83;38.56;62.06;;
58303;Laerm;44109;52.398;7.024;2023-05-02T06:59:13;50.47;37.88;64.47;;
58303;Laerm;44109;52.398;7.024;2023-05-02T07:01:42;48.47;37.97;68.07;;
58303;Laerm;44109;52.398;7.024;2023-05-02T07:04:10;47.64;37.43;57.88;;
58303;Laerm;44109;52.398;7.024;2023-05-02T07:06:39;48.44;37.62;61.64;;
58303;Laerm;44109;52.398;7.024;2023-05-02T07:09:06;48.03;36.75;58.21;;
58303;Laerm;44109;52.398;7.024;2023-05-02T07:11:34;51.62;39.44;66.30;;
58303;Laerm;44109;52.398;7.024;2023-05-02T07:14:02;52.39;38.42;71.00;;
58303;Laerm;44109;52.398;7.024;2023-05-02T07:16:31;49.44;38.35;65.69;;
58303;Laerm;44109;52.398;7.024;2023-05-02T07:18:59;48.48;37.68;58.49;;
58303;Laerm;44109;52.398;7.024;2023-05-02T07:21:27;49.77;38.10;63.87;;
58303;Laerm;44109;52.398;7.024;2023-05-02T07:23:54;55.48;37.48;83.40;;
58303;Laerm;44109;52.398;7.024;2023-05-02T07:26:25;51.78;37.51;66.55;;
58303;Laerm;44109;52.398;7.024;2023-05-02T07:28:54;53.39;40.08;70.79;;
58303;Laerm;44109;52.398;7.024;2023-05-02T07:31:21;53.86;39.46;69.13;;
58303;Laerm;44109;52.398;7.024;2023-05-02T07:33:50;51.19;38.82;70.89;;
58303;Laerm;44109;52.398;7.024;2023-05-02T07:36:18;50.09;38.81;70.43;;
58303;Laerm;44109;52.398;7.024;2023-05-02T07:38:46;52.39;38.29;72.05;;
58303;Laerm;44109;52.398;7.024;2023-05-02T07:41:13;50.23;38.74;63.66;;
58303;Laerm;44109;52.398;7.024;2023-05-02T07:43:41;49.54;38.96;65.43;;
58303;Laerm;44109;52.398;7.024;2023-05-02T07:46:08;50.74;38.83;69.61;;
58303;Laerm;44109;52.398;7.024;2023-05-02T07:48:36;49.77;37.73;71.96;;
58303;Laerm;44109;52.398;7.024;2023-05-02T07:51:10;50.99;38.92;71.06;;
58303;Laerm;44109;52.398;7.024;2023-05-02T07:53:38;50.58;39.23;66.33;;
58303;Laerm;44109;52.398;7.024;2023-05-02T07:56:07;49.32;38.48;62.47;;
58303;Laerm;44109;52.398;7.024;2023-05-02T07:58:35;51.63;40.81;69.91;;
58303;Laerm;44109;52.398;7.024;2023-05-02T08:01:03;51.01;40.14;66.20;;
58303;Laerm;44109;52.398;7.024;2023-05-02T08:03:31;49.35;38.24;66.61;;
58303;Laerm;44109;52.398;7.024;2023-05-02T08:05:58;50.02;38.94;63.21;;
58303;Laerm;44109;52.398;7.024;2023-05-02T08:08:28;49.91;39.04;59.19;;
58303;Laerm;44109;52.398;7.024;2023-05-02T08:10:56;50.08;38.85;62.80;;
58303;Laerm;44109;52.398;7.024;2023-05-02T08:13:23;50.72;38.40;66.55;;
58303;Laerm;44109;52.398;7.024;2023-05-02T08:15:52;51.52;36.95;70.30;;
58303;Laerm;44109;52.398;7.024;2023-05-02T08:18:23;50.19;37.50;67.48;;
58303;Laerm;44109;52.398;7.024;2023-05-02T08:20:50;53.82;37.14;70.87;;
58303;Laerm;44109;52.398;7.024;2023-05-02T08:23:18;51.76;37.18;67.20;;
58303;Laerm;44109;52.398;7.024;2023-05-02T08:25:47;50.09;36.53;62.62;;
58303;Laerm;44109;52.398;7.024;2023-05-02T08:28:15;49.72;37.38;60.68;;
58303;Laerm;44109;52.398;7.024;2023-05-02T08:30:42;49.37;36.80;58.32;;
58303;Laerm;44109;52.398;7.024;2023-05-02T08:33:10;49.14;37.37;60.54;;
58303;Laerm;44109;52.398;7.024;2023-05-02T08:35:38;49.84;39.15;65.21;;
58303;Laerm;44109;52.398;7.024;2023-05-02T08:38:05;53.56;36.87;75.63;;
58303;Laerm;44109;52.398;7.024;2023-05-02T08:40:36;53.40;37.40;69.38;;
58303;Laerm;44109;52.398;7.024;2023-05-02T08:43:05;53.00;37.18;69.30;;
58303;Laerm;44109;52.398;7.024;2023-05-02T08:45:36;53.63;36.14;68.95;;
58303;Laerm;44109;52.398;7.024;2023-05-02T08:48:08;52.10;38.29;70.68;;
58303;Laerm;44109;52.398;7.024;2023-05-02T08:50:36;51.24;37.56;71.97;;
58303;Laerm;44109;52.398;7.024;2023-05-02T08:53:05;54.07;38.32;71.21;;
58303;Laerm;44109;52.398;7.024;2023-05-02T08:55:36;53.27;38.88;70.94;;
58303;Laerm;44109;52.398;7.024;2023-05-02T08:58:08;49.74;38.66;66.11;;
58303;Laerm;44109;52.398;7.024;2023-05-02T09:00:38;48.72;37.04;58.84;;
58303;Laerm;44109;52.398;7.024;2023-05-02T09:03:20;48.53;36.40;63.44;;
58303;Laerm;44109;52.398;7.024;2023-05-02T09:05:52;44.08;36.96;64.56;;
58303;Laerm;44109;52.398;7.024;2023-05-02T09:08:23;48.17;36.89;62.40;;
58303;Laerm;44109;52.398;7.024;2023-05-02T09:10:51;56.52;37.80;81.27;;
58303;Laerm;44109;52.398;7.024;2023-05-02T09:13:35;49.02;36.81;63.37;;
58303;Laerm;44109;52.398;7.024;2023-05-02T09:16:05;48.55;36.88;63.23;;
58303;Laerm;44109;52.398;7.024;2023-05-02T09:18:36;48.60;36.92;66.62;;
58303;Laerm;44109;52.398;7.024;2023-05-02T09:21:06;47.94;36.00;63.03;;
58303;Laerm;44109;52.398;7.024;2023-05-02T09:23:39;48.83;36.39;66.13;;
58303;Laerm;44109;52.398;7.024;2023-05-02T09:26:16;50.51;36.81;66.22;;
58303;Laerm;44109;52.398;7.024;2023-05-02T09:28:47;48.45;36.47;62.59;;
58303;Laerm;44109;52.398;7.024;2023-05-02T09:31:17;49.10;37.52;63.27;;
58303;Laerm;44109;52.398;7.024;2023-05-02T09:33:45;51.04;37.48;64.81;;
58303;Laerm;44109;52.398;7.024;2023-05-02T09:36:14;51.06;35.54;66.08;;
58303;Laerm;44109;52.398;7.024;2023-05-02T09:38:48;49.46;37.64;61.73;;
58303;Laerm;44109;52.398;7.024;2023-05-02T09:41:16;51.43;38.04;69.72;;
58303;Laerm;44109;52.398;7.024;2023-05-02T09:43:55;53.43;38.23;69.13;;
58303;Laerm;44109;52.398;7.024;2023-05-02T09:46:23;54.33;39.38;70.58;;
58303;Laerm;44109;52.398;7.024;2023-05-02T09:48:52;54.00;39.76;72.32;;
58303;Laerm;44109;52.398;7.024;2023-05-02T09:51:23;51.97;39.61;68.84;;
58303;Laerm;44109;52.398;7.024;2023-05-02T09:53:51;50.60;38.61;64.26;;
58303;Laerm;44109;52.398;7.024;2023-05-02T09:56:19;50.48;38.47;69.62;;
58303;Laerm;44109;52.398;7.024;2023-05-02T09:58:47;50.76;38.30;69.58;;
58303;Laerm;44109;52.398;7.024;2023-05-02T10:01:19;49.46;38.86;62.09;;
58303;Laerm;44109;52.398;7.024;2023-05-02T10:03:47;51.09;39.72;69.54;;
58303;Laerm;44109;52.398;7.024;2023-05-02T10:06:15;49.69;39.35;62.80;;
58303;Laerm;44109;52.398;7.024;2023-05-02T10:08:43;51.96;39.67;74.18;;
58303;Laerm;44109;52.398;7.024;2023-05-02T10:11:13;51.82;37.31;69.21;;
58303;Laerm;44109;52.398;7.024;2023-05-02T10:13:42;48.63;37.01;60.75;;
58303;Laerm;44109;52.398;7.024;2023-05-02T10:16:12;49.33;37.95;60.62;;
58303;Laerm;44109;52.398;7.024;2023-05-02T10:18:50;49.13;37.64;59.56;;
58303;Laerm;44109;52.398;7.024;2023-05-02T10:21:25;49.05;37.35;58.86;;
58303;Laerm;44109;52.398;7.024;2023-05-02T10:23:54;50.70;38.25;62.78;;
58303;Laerm;44109;52.398;7.024;2023-05-02T10:26:22;52.06;38.88;64.52;;
58303;Laerm;44109;52.398;7.024;2023-05-02T10:28:50;50.28;38.14;66.96;;
58303;Laerm;44109;52.398;7.024;2023-05-02T10:31:19;49.75;36.04;64.29;;
58303;Laerm;44109;52.398;7.024;2023-05-02T10:33:50;49.39;36.66;64.40;;
58303;Laerm;44109;52.398;7.024;2023-05-02T10:36:21;50.73;37.64;66.55;;
58303;Laerm;44109;52.398;7.024;2023-05-02T10:38:49;50.42;35.87;65.95;;
58303;Laerm;44109;52.398;7.024;2023-05-02T10:41:23;49.07;36.53;61.20;;
58303;Laerm;44109;52.398;7.024;2023-05-02T10:43:52;48.45;35.91;62.86;;
58303;Laerm;44109;52.398;7.024;2023-05-02T10:46:31;48.56;35.89;59.37;;
58303;Laerm;44109;52.398;7.024;2023-05-02T10:49:02;50.08;37.08;61.72;;
58303;Laerm;44109;52.398;7.024;2023-05-02T10:51:32;48.90;36.47;68.36;;
58303;Laerm;44109;52.398;7.024;2023-05-02T10:54:22;48.87;36.11;63.49;;
58303;Laerm;44109;52.398;7.024;2023-05-02T10:57:11;49.58;36.49;71.00;;
58303;Laerm;44109;52.398;7.024;2023-05-02T10:59:40;52.30;37.14;74.76;;
58303;Laerm;44109;52.398;7.024;2023-05-02T11:02:45;52.10;36.76;67.94;;
58303;Laerm;44109;52.398;7.024;2023-05-02T11:05:15;51.75;36.33;64.24;;
58303;Laerm;44109;52.398;7.024;2023-05-02T11:07:43;54.90;36.49;76.14;;
58303;Laerm;44109;52.398;7.024;2023-05-02T11:10:31;53.09;37.16;68.24;;
58303;Laerm;44109;52.398;7.024;2023-05-02T11:13:04;52.22;36.85;70.51;;
58303;Laerm;44109;52.398;7.024;2023-05-02T11:15:55;50.41;36.30;64.92;;
58303;Laerm;44109;52.398;7.024;2023-05-02T11:18:24;49.11;37.07;59.86;;
58303;Laerm;44109;52.398;7.024;2023-05-02T11:21:26;48.68;36.88;63.13;;
58303;Laerm;44109;52.398;7.024;2023-05-02T11:24:38;49.96;36.59;63.57;;
58303;Laerm;44109;52.398;7.024;2023-05-02T11:27:38;48.57;36.26;61.90;;
58303;Laerm;44109;52.398;7.024;2023-05-02T11:30:08;51.21;34.98;69.13;;
58303;Laerm;44109;52.398;7.024;2023-05-02T11:33:20;49.11;34.00;67.03;;
58303;Laerm;44109;52.398;7.024;2023-05-02T11:35:48;50.25;34.48;65.44;;
58303;Laerm;44109;52.398;7.024;2023-05-02T11:38:21;50.90;36.73;70.78;;
58303;Laerm;44109;52.398;7.024;2023-05-02T11:40:52;50.62;36.24;70.43;;
58303;Laerm;44109;52.398;7.024;2023-05-02T11:43:25;54.02;37.39;71.19;;
58303;Laerm;44109;52.398;7.024;2023-05-02T11:45:57;48.68;36.56;60.36;;
58303;Laerm;44109;52.398;7.024;2023-05-02T11:48:28;49.60;34.69;60.91;;
58303;Laerm;44109;52.398;7.024;2023-05-02T11:50:59;49.08;34.56;59.81;;
58303;Laerm;44109;52.398;7.024;2023-05-02T11:53:39;48.37;34.46;61.20;;
58303;Laerm;44109;52.398;7.024;2023-05-02T11:56:10;48.97;34.70;63.30;;
58303;Laerm;44109;52.398;7.024;2023-05-02T11:58:40;49.20;35.75;63.47;;
58303;Laerm;44109;52.398;7.024;2023-05-02T12:01:13;49.06;36.05;59.48;;
58303;Laerm;44109;52.398;7.024;2023-05-02T12:03:47;51.17;35.73;72.12;;
58303;Laerm;44109;52.398;7.024;2023-05-02T12:06:25;49.01;34.51;62.64;;
58303;Laerm;44109;52.398;7.024;2023-05-02T12:09:12;51.62;34.83;66.78;;
58303;Laerm;44109;52.398;7.024;2023-05-02T12:11:41;50.98;34.13;68.24;;
58303;Laerm;44109;52.398;7.024;2023-05-02T12:14:10;48.60;34.70;63.37;;
58303;Laerm;44109;52.398;7.024;2023-05-02T12:16:40;49.16;34.98;69.41;;
58303;Laerm;44109;52.398;7.024;2023-05-02T12:19:11;49.24;35.69;63.03;;
58303;Laerm;44109;52.398;7.024;2023-05-02T12:21:39;49.40;35.91;61.39;;
58303;Laerm;44109;52.398;7.024;2023-05-02T12:24:09;55.82;35.11;80.58;;
58303;Laerm;44109;52.398;7.024;2023-05-02T12:26:37;51.51;35.40;68.78;;
58303;Laerm;44109;52.398;7.024;2023-05-02T12:29:07;50.30;35.32;62.18;;
58303;Laerm;44109;52.398;7.024;2023-05-02T12:31:35;49.44;35.39;59.67;;
58303;Laerm;44109;52.398;7.024;2023-05-02T12:34:03;50.67;36.08;63.93;;
58303;Laerm;44109;52.398;7.024;2023-05-02T12:36:31;53.15;34.71;68.60;;
58303;Laerm;44109;52.398;7.024;2023-05-02T12:39:00;52.89;34.79;66.28;;
58303;Laerm;44109;52.398;7.024;2023-05-02T12:41:37;51.94;36.08;66.58;;
58303;Laerm;44109;52.398;7.024;2023-05-02T12:44:08;51.63;35.88;68.88;;
58303;Laerm;44109;52.398;7.024;2023-05-02T12:46:37;51.27;35.59;65.85;;
58303;Laerm;44109;52.398;7.024;2023-05-02T12:49:12;53.08;36.31;68.31;;
58303;Laerm;44109;52.398;7.024;2023-05-02T12:51:52;50.82;36.77;70.51;;
58303;Laerm;44109;52.398;7.024;2023-05-02T12:54:21;50.53;34.63;69.54;;
58303;Laerm;44109;52.398;7.024;2023-05-02T12:56:51;51.55;34.77;74.80;;
58303;Laerm;44109;52.398;7.024;2023-05-02T12:59:27;57.74;36.14;75.94;;
58303;Laerm;44109;52.398;7.024;2023-05-02T13:02:01;50.53;35.19;68.11;;
58303;Laerm;44109;52.398;7.024;2023-05-02T13:04:38;52.22;35.48;71.25;;
58303;Laerm;44109;52.398;7.024;2023-05-02T13:07:07;49.81;35.71;64.44;;
58303;Laerm;44109;52.398;7.024;2023-05-02T13:09:42;50.59;34.89;68.97;;
58303;Laerm;44109;52.398;7.024;2023-05-02T13:12:11;49.94;35.66;70.08;;
58303;Laerm;44109;52.398;7.024;2023-05-02T13:14:40;52.09;37.36;68.50;;
58303;Laerm;44109;52.398;7.024;2023-05-02T13:17:11;52.53;36.77;67.55;;
58303;Laerm;44109;52.398;7.024;2023-05-02T13:19:41;52.24;36.39;68.62;;
58303;Laerm;44109;52.398;7.024;2023-05-02T13:22:09;53.33;36.85;63.45;;
58303;Laerm;44109;52.398;7.024;2023-05-02T13:24:39;52.50;37.52;69.93;;
58303;Laerm;44109;52.398;7.024;2023-05-02T13:27:07;51.29;36.87;71.03;;
58303;Laerm;44109;52.398;7.024;2023-05-02T13:29:39;50.50;35.41;68.83;;
58303;Laerm;44109;52.398;7.024;2023-05-02T13:32:07;53.54;35.64;61.63;;
58303;Laerm;44109;52.398;7.024;2023-05-02T13:34:35;50.79;36.14;63.47;;
58303;Laerm;44109;52.398;7.024;2023-05-02T13:37:03;51.73;35.53;66.65;;
58303;Laerm;44109;52.398;7.024;2023-05-02T13:39:31;52.87;36.57;68.92;;
58303;Laerm;44109;52.398;7.024;2023-05-02T13:42:06;51.69;35.67;72.30;;
58303;Laerm;44109;52.398;7.024;2023-05-02T13:44:39;62.81;35.95;90.89;;
58303;Laerm;44109;52.398;7.024;2023-05-02T13:47:10;53.67;38.03;73.52;;
58303;Laerm;44109;52.398;7.024;2023-05-02T13:49:37;51.98;37.77;75.67;;
58303;Laerm;44109;52.398;7.024;2023-05-02T13:52:08;51.21;36.61;76.41;;
58303;Laerm;44109;52.398;7.024;2023-05-02T13:54:37;51.09;35.58;66.34;;
58303;Laerm;44109;52.398;7.024;2023-05-02T13:57:08;50.03;35.27;64.53;;
58303;Laerm;44109;52.398;7.024;2023-05-02T13:59:38;52.97;34.90;67.58;;
58303;Laerm;44109;52.398;7.024;2023-05-02T14:02:17;50.82;35.89;66.67;;
58303;Laerm;44109;52.398;7.024;2023-05-02T14:04:45;48.43;35.01;58.82;;